Time;durP1;ratioP1;P1;durP2;ratioP2;P2;SDS_P1;SDS_P2;PMS_P1;PMS_P2;Temp;Humidity;BMP_temperature;BMP_pressure;BME280_temperature;BME280_humidity;BME280_pressure;Samples;Min_cycle;Max_cycle;Signal;HPM_P1;HPM_P2
2023/12/30 00:20:32;;;;;;;;;;;;;;;11.26;58.25;99699.94;1088881;46;1721;-77
2023/12/30 09:50:53;;;;;;;;;;;;;;;11.14;68.72;100010.53;1088535;46;1723;-77
2023/12/30 09:52:00;;;;;;;;;;;;;;;11.20;68.14;100014.47;1086406;47;1290;-77
2023/12/30 09:53:03;;;;;;;;;;;;;;;11.32;68.04;100012.41;1086870;54;1138;-78
2023/12/30 09:54:04;;;;;;;;;;;;;;;11.35;68.06;100006.75;1085935;47;1068;-77
2023/12/30 09:55:07;;;;;;;;;;;;;;;11.41;67.94;100008.81;1085898;54;1166;-79
2023/12/30 09:56:08;;;;;;;;;;;;;;;11.34;68.17;100010.44;1086863;54;1130;-79
2023/12/30 09:57:12;;;;;;;;;;;;;;;11.34;68.02;100013.94;1087156;54;1150;-78
2023/12/30 09:58:13;;;;;;;;;;;;;;;11.27;68.23;100012.84;1087058;47;1124;-79
2023/12/30 09:59:16;;;;;;;;;;;;;;;11.42;67.64;100015.03;1087278;54;997;-78
2023/12/30 10:00:19;;;;;;;;;;;;;;;11.36;67.75;100008.44;1086277;47;1330;-79
2023/12/30 10:01:22;;;;;;;;;;;;;;;11.37;67.61;100021.66;1086262;54;1181;-79
2023/12/30 10:02:23;;;;;;;;;;;;;;;11.21;68.15;100014.31;1086308;54;1158;-80
2023/12/30 10:03:23;;;;;;;;;;;;;;;11.28;67.62;100008.38;1085776;54;1164;-78
2023/12/30 10:04:26;;;;;;;;;;;;;;;11.23;67.90;100006.16;1085677;54;1165;-78
2023/12/30 10:05:27;;;;;;;;;;;;;;;11.18;67.63;100013.75;1086839;47;1007;-79
2023/12/30 10:06:31;;;;;;;;;;;;;;;11.23;67.78;100004.28;1086492;47;1163;-80
2023/12/30 10:07:35;;;;;;;;;;;;;;;11.32;67.56;100010.59;1086039;54;1051;-77
2023/12/30 10:08:38;;;;;;;;;;;;;;;11.39;67.10;100009.00;1086914;46;1844;-78
2023/12/30 10:09:39;;;;;;;;;;;;;;;11.36;67.38;100003.09;1086677;47;1090;-77
2023/12/30 10:10:42;;;;;;;;;;;;;;;11.36;67.10;100003.94;1087516;54;1339;-78
2023/12/30 10:11:46;;;;;;;;;;;;;;;11.43;67.26;99993.47;1087104;46;1033;-77
2023/12/30 10:12:47;;;;;;;;;;;;;;;11.44;66.98;99996.97;1087185;47;1157;-77
2023/12/30 10:13:53;;;;;;;;;;;;;;;11.53;66.62;99994.25;1087036;47;1131;-77
2023/12/30 10:14:54;;;;;;;;;;;;;;;11.44;66.99;99994.28;1086978;46;976;-76
2023/12/30 10:15:59;;;;;;;;;;;;;;;11.45;66.58;99998.66;1086988;54;1497;-78
2023/12/30 10:17:05;;;;;;;;;;;;;;;11.44;66.52;99994.28;1087806;54;1038;-78
2023/12/30 10:18:07;;;;;;;;;;;;;;;11.43;66.29;99995.31;1087135;54;1090;-78
2023/12/30 10:19:11;;;;;;;;;;;;;;;11.50;66.50;99994.53;1086944;47;1034;-77
2023/12/30 10:20:11;;;;;;;;;;;;;;;11.55;66.11;99999.44;1086908;47;1476;-76
2023/12/30 10:21:12;;;;;;;;;;;;;;;11.51;65.75;99998.06;1086847;47;1105;-77
2023/12/30 10:22:15;;;;;;;;;;;;;;;11.47;65.55;99992.19;1086576;46;1125;-77
2023/12/30 10:23:18;;;;;;;;;;;;;;;11.64;65.06;99995.84;1086879;54;1091;-77
2023/12/30 10:24:22;;;;;;;;;;;;;;;11.59;65.04;99987.44;1086743;47;992;-79
2023/12/30 10:25:22;;;;;;;;;;;;;;;11.60;64.75;99997.16;1086561;47;1040;-77
2023/12/30 10:26:26;;;;;;;;;;;;;;;11.53;65.00;99990.69;1086578;54;1095;-78
2023/12/30 10:27:27;;;;;;;;;;;;;;;11.58;64.28;99991.09;1086784;54;1068;-77
2023/12/30 10:28:30;;;;;;;;;;;;;;;11.54;64.44;99995.06;1087067;47;1072;-77
2023/12/30 10:29:31;;;;;;;;;;;;;;;11.49;64.61;99992.03;1087041;54;1921;-78
2023/12/30 10:30:34;;;;;;;;;;;;;;;11.41;64.38;99989.25;1086601;54;1395;-77
2023/12/30 10:31:38;;;;;;;;;;;;;;;11.55;64.26;99989.59;1086973;54;1091;-76
2023/12/30 10:32:42;;;;;;;;;;;;;;;11.78;63.40;99991.78;1086633;54;1107;-75
2023/12/30 10:33:42;;;;;;;;;;;;;;;11.76;63.47;99998.28;1086233;54;1503;-76
2023/12/30 10:34:46;;;;;;;;;;;;;;;11.74;63.03;100000.28;1086154;47;1165;-78
2023/12/30 10:35:47;;;;;;;;;;;;;;;11.54;63.22;99995.06;1085875;54;1083;-78
2023/12/30 10:36:50;;;;;;;;;;;;;;;11.47;63.36;99988.66;1087939;54;1090;-75
2023/12/30 10:37:51;;;;;;;;;;;;;;;11.66;62.64;99988.50;1088027;54;1576;-77
2023/12/30 10:38:57;;;;;;;;;;;;;;;11.79;62.30;99988.09;1086782;54;1173;-77
2023/12/30 10:39:59;;;;;;;;;;;;;;;12.04;61.78;99992.84;1085891;54;1547;-77
2023/12/30 10:41:02;;;;;;;;;;;;;;;12.06;61.45;99991.69;1086012;54;1586;-77
2023/12/30 10:42:04;;;;;;;;;;;;;;;12.13;61.38;99989.25;1085875;47;1789;-77
2023/12/30 10:43:08;;;;;;;;;;;;;;;12.23;60.81;99984.63;1086496;51;1050;-77
2023/12/30 10:44:08;;;;;;;;;;;;;;;12.53;59.96;99973.56;1086969;47;1086;-78
2023/12/30 10:45:12;;;;;;;;;;;;;;;12.66;59.42;99983.88;1086212;47;1043;-77
2023/12/30 10:46:13;;;;;;;;;;;;;;;12.51;59.47;99983.63;1086596;54;1178;-77
2023/12/30 10:47:17;;;;;;;;;;;;;;;12.53;59.59;99987.84;1086267;46;1178;-77
2023/12/30 10:48:18;;;;;;;;;;;;;;;12.12;60.23;99987.56;1087008;54;1151;-78
2023/12/30 10:49:24;;;;;;;;;;;;;;;12.08;59.76;99981.66;1086241;54;1841;-76
2023/12/30 10:50:26;;;;;;;;;;;;;;;12.00;59.58;99987.81;1087181;54;1400;-76
2023/12/30 10:51:29;;;;;;;;;;;;;;;11.84;59.72;99996.53;1086700;54;1327;-78
2023/12/30 10:52:32;;;;;;;;;;;;;;;11.90;59.49;99989.72;1086958;54;1169;-76
2023/12/30 10:53:36;;;;;;;;;;;;;;;12.00;59.26;99987.81;1087111;54;1094;-77
2023/12/30 10:54:46;;;;;;;;;;;;;;;12.08;59.02;99986.19;1087092;54;1166;-77
2023/12/30 10:55:48;;;;;;;;;;;;;;;11.96;59.35;99985.56;1086688;47;1160;-78
2023/12/30 10:56:57;;;;;;;;;;;;;;;11.91;59.52;99991.38;1086633;54;1094;-78
2023/12/30 10:58:01;;;;;;;;;;;;;;;12.16;58.72;99978.22;1086807;46;1270;-77
2023/12/30 10:59:07;;;;;;;;;;;;;;;12.24;58.36;99986.31;1087191;54;1127;-78
2023/12/30 11:00:09;;;;;;;;;;;;;;;12.00;58.31;99979.75;1088421;54;1409;-77
2023/12/30 11:01:12;;;;;;;;;;;;;;;11.95;57.91;99979.38;1088040;54;1102;-78
2023/12/30 11:02:13;;;;;;;;;;;;;;;12.14;57.16;99986.41;1088137;46;977;-78
2023/12/30 11:03:16;;;;;;;;;;;;;;;12.13;57.15;99978.53;1087674;47;1005;-77
2023/12/30 11:04:17;;;;;;;;;;;;;;;12.08;57.10;99978.16;1086669;54;1087;-77
2023/12/30 11:05:25;;;;;;;;;;;;;;;12.07;56.87;99984.53;1085644;47;1425;-77
2023/12/30 11:06:30;;;;;;;;;;;;;;;12.05;56.78;99979.28;1087177;47;1054;-77
2023/12/30 11:07:31;;;;;;;;;;;;;;;12.32;56.25;99983.69;1086601;54;1149;-77
2023/12/30 11:08:34;;;;;;;;;;;;;;;12.37;56.02;99977.03;1087009;54;1110;-78
2023/12/30 11:09:36;;;;;;;;;;;;;;;12.41;55.75;99979.22;1086953;54;1866;-79
2023/12/30 11:10:42;;;;;;;;;;;;;;;12.36;55.49;99976.16;1087283;54;1351;-77
2023/12/30 11:11:47;;;;;;;;;;;;;;;12.04;55.76;99977.63;1086795;54;1169;-78
2023/12/30 11:12:53;;;;;;;;;;;;;;;11.88;55.93;99972.09;1086933;54;1083;-78
2023/12/30 11:13:54;;;;;;;;;;;;;;;12.02;55.50;99972.41;1086432;47;1138;-78
2023/12/30 11:14:55;;;;;;;;;;;;;;;12.08;55.48;99972.81;1087086;54;1147;-77
2023/12/30 11:16:13;;;;;;;;;;;;;;;12.10;55.23;99971.66;1087844;54;1238;-77
2023/12/30 11:17:32;;;;;;;;;;;;;;;11.96;55.48;99972.16;1087119;54;1038;-78
2023/12/30 11:18:50;;;;;;;;;;;;;;;12.20;55.04;99970.72;1087208;54;1157;-77
2023/12/30 11:19:51;;;;;;;;;;;;;;;12.04;55.23;99971.44;1087331;54;1410;-77
2023/12/30 11:20:54;;;;;;;;;;;;;;;11.96;55.09;99974.84;1086881;54;1054;-77
2023/12/30 11:21:55;;;;;;;;;;;;;;;11.82;55.53;99970.88;1087006;47;1055;-77
2023/12/30 11:23:03;;;;;;;;;;;;;;;11.89;55.36;99977.31;1087112;54;1653;-77
2023/12/30 11:24:04;;;;;;;;;;;;;;;11.96;55.14;99981.06;1087196;54;951;-77
2023/12/30 11:25:08;;;;;;;;;;;;;;;11.92;55.44;99968.97;1087324;54;1003;-77
2023/12/30 11:26:15;;;;;;;;;;;;;;;11.84;55.75;99975.13;1087301;54;1177;-79
2023/12/30 11:27:16;;;;;;;;;;;;;;;11.85;55.52;99968.72;1087148;54;1408;-77
2023/12/30 11:28:20;;;;;;;;;;;;;;;11.89;55.56;99980.00;1086939;47;1518;-77
2023/12/30 11:29:25;;;;;;;;;;;;;;;11.91;55.57;99974.47;1086596;47;1897;-77
2023/12/30 11:30:26;;;;;;;;;;;;;;;11.93;55.27;99967.97;1087397;54;1311;-78
2023/12/30 11:31:33;;;;;;;;;;;;;;;11.92;55.33;99968.97;1086937;47;1067;-77
2023/12/30 11:32:33;;;;;;;;;;;;;;;11.90;55.64;99972.78;1087002;47;1165;-78
2023/12/30 11:33:37;;;;;;;;;;;;;;;11.88;55.62;99969.44;1086471;54;995;-77
2023/12/30 11:34:37;;;;;;;;;;;;;;;11.94;55.55;99969.66;1086301;54;1150;-77
2023/12/30 11:35:41;;;;;;;;;;;;;;;12.08;55.07;99970.13;1086202;47;1102;-77
2023/12/30 11:36:42;;;;;;;;;;;;;;;12.21;54.91;99965.19;1086516;54;1023;-77
2023/12/30 11:37:44;;;;;;;;;;;;;;;12.30;54.65;99969.59;1086225;47;1128;-78
2023/12/30 11:38:48;;;;;;;;;;;;;;;12.12;54.59;99971.47;1086381;54;1503;-78
2023/12/30 11:39:51;;;;;;;;;;;;;;;11.90;54.66;99967.44;1086287;54;1352;-76
2023/12/30 11:40:53;;;;;;;;;;;;;;;11.99;54.22;99958.50;1085883;54;1041;-77
2023/12/30 11:41:59;;;;;;;;;;;;;;;12.08;53.96;99962.09;1087019;54;1320;-77
2023/12/30 11:42:59;;;;;;;;;;;;;;;12.14;54.01;99959.59;1088163;54;1090;-79
2023/12/30 11:44:05;;;;;;;;;;;;;;;12.32;53.74;99966.78;1088442;47;1045;-79
2023/12/30 11:45:06;;;;;;;;;;;;;;;12.24;53.53;99961.34;1088502;54;1020;-79
2023/12/30 11:46:11;;;;;;;;;;;;;;;12.25;53.90;99960.34;1088406;47;952;-80
2023/12/30 11:47:20;;;;;;;;;;;;;;;12.24;53.64;99954.16;1087651;47;887;-77
2023/12/30 11:48:24;;;;;;;;;;;;;;;12.26;53.63;99951.31;1086830;54;1070;-78
2023/12/30 11:49:25;;;;;;;;;;;;;;;12.27;53.36;99964.56;1088084;54;1875;-77
2023/12/30 11:50:28;;;;;;;;;;;;;;;12.08;53.50;99954.06;1088098;47;1257;-77
2023/12/30 11:51:30;;;;;;;;;;;;;;;12.10;53.04;99946.69;1087999;47;1151;-79
2023/12/30 11:52:33;;;;;;;;;;;;;;;12.08;53.41;99956.72;1087006;46;959;-77
2023/12/30 11:53:34;;;;;;;;;;;;;;;12.07;53.56;99958.56;1086555;54;1089;-79
2023/12/30 11:54:39;;;;;;;;;;;;;;;12.00;53.46;99952.97;1086354;54;1386;-78
2023/12/30 11:55:40;;;;;;;;;;;;;;;12.06;53.38;99948.00;1086748;54;1149;-79
2023/12/30 11:56:45;;;;;;;;;;;;;;;12.14;53.45;99946.19;1086833;54;1181;-78
2023/12/30 11:57:50;;;;;;;;;;;;;;;12.15;53.38;99944.38;1087103;47;1109;-77
2023/12/30 11:58:54;;;;;;;;;;;;;;;12.38;52.62;99935.78;1087323;46;1114;-77
2023/12/30 11:59:55;;;;;;;;;;;;;;;12.48;52.54;99936.50;1087473;46;1279;-77
2023/12/30 12:00:58;;;;;;;;;;;;;;;12.22;52.72;99934.69;1087884;47;1150;-77
2023/12/30 12:02:06;;;;;;;;;;;;;;;12.43;52.46;99941.53;1087013;47;1154;-79
2023/12/30 12:03:09;;;;;;;;;;;;;;;12.13;52.53;99931.16;1086929;47;1177;-78
2023/12/30 12:04:10;;;;;;;;;;;;;;;12.13;52.40;99938.31;1086777;54;1065;-76
2023/12/30 12:05:13;;;;;;;;;;;;;;;12.29;52.20;99935.75;1085508;47;1160;-77
2023/12/30 12:06:15;;;;;;;;;;;;;;;12.27;52.23;99932.41;1085666;47;1121;-77
2023/12/30 12:07:18;;;;;;;;;;;;;;;12.31;52.29;99936.44;1086374;54;1025;-78
2023/12/30 12:08:19;;;;;;;;;;;;;;;12.11;51.93;99940.31;1086827;54;1092;-77
2023/12/30 12:09:23;;;;;;;;;;;;;;;12.09;51.82;99928.94;1086730;54;1852;-78
2023/12/30 12:10:24;;;;;;;;;;;;;;;12.22;51.68;99933.88;1086229;47;1404;-77
2023/12/30 12:11:28;;;;;;;;;;;;;;;12.29;51.73;99927.69;1086582;54;1148;-77
2023/12/30 12:12:34;;;;;;;;;;;;;;;12.45;51.17;99931.50;1086789;47;1142;-78
2023/12/30 12:13:41;;;;;;;;;;;;;;;12.39;51.79;99930.28;1085391;54;1162;-78
2023/12/30 12:14:47;;;;;;;;;;;;;;;12.69;50.99;99924.53;1086165;46;1092;-77
2023/12/30 12:15:51;;;;;;;;;;;;;;;12.67;50.96;99919.34;1086892;47;1059;-77
2023/12/30 12:16:51;;;;;;;;;;;;;;;12.76;51.31;99923.75;1087002;54;1077;-77
2023/12/30 12:17:54;;;;;;;;;;;;;;;12.82;50.94;99924.94;1086777;54;1164;-77
2023/12/30 12:18:57;;;;;;;;;;;;;;;12.56;51.54;99922.31;1086783;54;1162;-78
2023/12/30 12:20:00;;;;;;;;;;;;;;;12.85;50.98;99921.09;1086036;47;1424;-78
2023/12/30 12:21:03;;;;;;;;;;;;;;;12.98;51.11;99915.25;1086459;47;1126;-79
2023/12/30 12:22:07;;;;;;;;;;;;;;;13.00;50.74;99910.56;1086312;47;1158;-78
2023/12/30 12:23:07;;;;;;;;;;;;;;;12.80;50.74;99910.84;1086967;47;1606;-78
2023/12/30 12:24:11;;;;;;;;;;;;;;;12.71;50.91;99917.19;1086289;47;1510;-78
2023/12/30 12:25:12;;;;;;;;;;;;;;;12.66;50.54;99908.78;1086923;47;1462;-79
2023/12/30 12:26:15;;;;;;;;;;;;;;;12.94;50.18;99907.53;1086469;54;1213;-78
2023/12/30 12:27:17;;;;;;;;;;;;;;;12.94;50.10;99904.84;1086229;54;1082;-77
2023/12/30 12:28:19;;;;;;;;;;;;;;;13.01;50.03;99907.72;1086144;47;1121;-77
2023/12/30 12:29:26;;;;;;;;;;;;;;;12.98;50.04;99901.84;1086695;54;1838;-80
2023/12/30 12:30:26;;;;;;;;;;;;;;;12.82;50.08;99905.31;1086572;54;1482;-78
2023/12/30 12:31:30;;;;;;;;;;;;;;;12.98;49.71;99902.69;1085478;47;1019;-77
2023/12/30 12:32:34;;;;;;;;;;;;;;;13.00;49.85;99905.19;1086344;47;1499;-77
2023/12/30 12:33:40;;;;;;;;;;;;;;;12.98;49.72;99894.66;1087585;47;1015;-76
2023/12/30 12:34:41;;;;;;;;;;;;;;;13.11;49.88;99896.84;1088217;54;1030;-77
2023/12/30 12:35:45;;;;;;;;;;;;;;;12.82;50.18;99903.47;1087730;47;1038;-77
2023/12/30 12:36:45;;;;;;;;;;;;;;;12.60;50.18;99908.41;1087760;47;1114;-78
2023/12/30 12:37:49;;;;;;;;;;;;;;;12.79;50.07;99910.03;1087056;47;1233;-80
2023/12/30 12:38:50;;;;;;;;;;;;;;;12.62;50.19;99909.09;1087819;47;987;-77
2023/12/30 12:39:54;;;;;;;;;;;;;;;12.62;50.49;99908.25;1087325;47;1342;-77
2023/12/30 12:40:54;;;;;;;;;;;;;;;12.70;50.03;99912.81;1087070;47;1111;-76
2023/12/30 12:41:55;;;;;;;;;;;;;;;12.45;50.67;99913.56;1087244;47;1457;-78
2023/12/30 12:42:58;;;;;;;;;;;;;;;12.35;50.69;99902.09;1087743;54;1136;-77
2023/12/30 12:43:59;;;;;;;;;;;;;;;12.42;50.30;99905.81;1087602;54;1061;-77
2023/12/30 12:45:06;;;;;;;;;;;;;;;12.32;50.56;99903.28;1087469;47;1202;-76
2023/12/30 12:46:08;;;;;;;;;;;;;;;12.39;50.43;99902.63;1087383;47;1209;-76
2023/12/30 12:47:09;;;;;;;;;;;;;;;12.28;50.73;99907.25;1087397;54;1107;-76
2023/12/30 12:48:12;;;;;;;;;;;;;;;12.40;50.65;99913.19;1087565;54;1143;-77
2023/12/30 12:49:17;;;;;;;;;;;;;;;12.35;50.89;99906.63;1087911;54;1086;-76
2023/12/30 12:50:21;;;;;;;;;;;;;;;12.36;50.79;99900.28;1088037;54;1861;-77
2023/12/30 12:51:22;;;;;;;;;;;;;;;12.41;50.82;99904.16;1088151;47;1085;-76
2023/12/30 12:52:26;;;;;;;;;;;;;;;12.34;51.04;99900.41;1087422;54;1138;-76
2023/12/30 12:53:26;;;;;;;;;;;;;;;12.39;50.90;99899.94;1087920;47;1542;-76
2023/12/30 12:54:30;;;;;;;;;;;;;;;12.46;50.89;99901.00;1087744;54;929;-75
2023/12/30 12:55:30;;;;;;;;;;;;;;;12.26;51.08;99895.88;1088006;54;1283;-76
2023/12/30 12:56:35;;;;;;;;;;;;;;;12.27;51.24;99897.56;1088102;54;1071;-76
2023/12/30 12:57:36;;;;;;;;;;;;;;;12.29;50.77;99892.84;1088118;54;974;-76
2023/12/30 12:58:40;;;;;;;;;;;;;;;12.32;50.72;99902.44;1088048;54;1055;-75
2023/12/30 12:59:40;;;;;;;;;;;;;;;12.26;50.82;99897.69;1088224;54;995;-76
2023/12/30 13:00:47;;;;;;;;;;;;;;;12.23;51.18;99896.19;1087858;54;1440;-76
2023/12/30 13:01:48;;;;;;;;;;;;;;;12.16;51.35;99898.66;1088114;54;1097;-76
2023/12/30 13:02:52;;;;;;;;;;;;;;;12.24;51.28;99897.00;1088250;54;889;-77
2023/12/30 13:03:52;;;;;;;;;;;;;;;12.45;51.09;99893.97;1088113;54;1178;-77
2023/12/30 13:04:57;;;;;;;;;;;;;;;12.38;51.04;99893.75;1088124;47;975;-76
2023/12/30 13:06:10;;;;;;;;;;;;;;;12.52;50.76;99896.81;1087839;47;1371;-77
2023/12/30 13:07:11;;;;;;;;;;;;;;;12.50;50.68;99893.47;1087824;54;1075;-77
2023/12/30 13:08:14;;;;;;;;;;;;;;;12.53;50.76;99883.25;1087901;54;1093;-77
2023/12/30 13:09:33;;;;;;;;;;;;;;;12.51;50.66;99885.25;1087937;54;1034;-76
2023/12/30 13:10:42;;;;;;;;;;;;;;;12.20;51.23;99888.44;1087809;54;1844;-76
2023/12/30 13:11:46;;;;;;;;;;;;;;;12.33;51.02;99894.22;1087913;54;1143;-76
2023/12/30 13:12:49;;;;;;;;;;;;;;;12.23;51.19;99890.81;1087900;54;1009;-77
2023/12/30 13:13:52;;;;;;;;;;;;;;;12.48;50.76;99893.63;1087327;47;1082;-76
2023/12/30 13:14:58;;;;;;;;;;;;;;;12.55;50.47;99891.13;1087227;54;992;-75
2023/12/30 13:16:02;;;;;;;;;;;;;;;12.41;50.81;99889.91;1086987;54;1009;-78
2023/12/30 13:17:11;;;;;;;;;;;;;;;12.23;51.02;99890.81;1087431;47;1035;-76
2023/12/30 13:18:17;;;;;;;;;;;;;;;12.13;51.12;99882.06;1087483;54;1042;-77
2023/12/30 13:19:21;;;;;;;;;;;;;;;12.25;51.23;99883.47;1087623;47;963;-76
2023/12/30 13:20:21;;;;;;;;;;;;;;;12.31;51.11;99884.69;1087640;54;1429;-77
2023/12/30 13:21:25;;;;;;;;;;;;;;;12.32;50.94;99876.47;1087568;47;1055;-76
2023/12/30 13:22:25;;;;;;;;;;;;;;;12.39;50.84;99886.53;1087510;47;1046;-79
2023/12/30 13:23:28;;;;;;;;;;;;;;;12.60;50.79;99878.94;1087610;54;1082;-76
2023/12/30 13:24:29;;;;;;;;;;;;;;;12.48;50.95;99877.53;1087502;47;1047;-77
2023/12/30 13:25:30;;;;;;;;;;;;;;;12.45;50.86;99875.19;1087574;54;1115;-76
2023/12/30 13:26:34;;;;;;;;;;;;;;;12.37;51.33;99878.66;1087487;47;1087;-76
2023/12/30 13:27:35;;;;;;;;;;;;;;;12.37;50.92;99877.84;1087583;47;949;-77
2023/12/30 13:28:38;;;;;;;;;;;;;;;12.43;50.94;99875.34;1087508;47;1059;-77
2023/12/30 13:29:39;;;;;;;;;;;;;;;12.40;51.02;99878.34;1087588;54;1107;-76
2023/12/30 13:30:43;;;;;;;;;;;;;;;12.57;50.48;99873.06;1087308;47;1865;-77
2023/12/30 13:31:48;;;;;;;;;;;;;;;12.52;50.81;99876.22;1087524;54;1039;-76
2023/12/30 13:32:55;;;;;;;;;;;;;;;12.51;50.90;99871.84;1087613;54;1150;-76
2023/12/30 13:33:56;;;;;;;;;;;;;;;12.49;51.01;99871.16;1087561;54;1091;-77
2023/12/30 13:35:01;;;;;;;;;;;;;;;12.29;51.23;99873.28;1087437;54;1173;-77
2023/12/30 13:36:06;;;;;;;;;;;;;;;12.28;51.31;99872.41;1087641;54;1099;-76
2023/12/30 13:37:09;;;;;;;;;;;;;;;12.15;51.61;99875.53;1087416;47;1127;-77
2023/12/30 13:38:12;;;;;;;;;;;;;;;12.19;51.61;99881.41;1087540;54;943;-76
2023/12/30 13:39:17;;;;;;;;;;;;;;;12.17;51.68;99878.06;1087716;54;1103;-76
2023/12/30 13:40:17;;;;;;;;;;;;;;;12.30;51.63;99889.19;1087522;54;1805;-76
2023/12/30 13:41:23;;;;;;;;;;;;;;;12.24;51.76;99879.09;1087596;54;1090;-76
2023/12/30 13:42:24;;;;;;;;;;;;;;;12.21;51.42;99876.75;1087522;54;1036;-77
2023/12/30 13:43:27;;;;;;;;;;;;;;;12.20;51.34;99875.06;1087542;54;1358;-77
2023/12/30 13:44:34;;;;;;;;;;;;;;;12.38;51.36;99872.31;1087462;47;1103;-76
2023/12/30 13:45:38;;;;;;;;;;;;;;;12.57;51.04;99870.38;1087451;47;976;-76
2023/12/30 13:46:56;;;;;;;;;;;;;;;12.53;50.91;99872.53;1087531;54;987;-78
2023/12/30 13:50:38;;;;;;;;;;;;;;;12.52;51.13;99864.63;1087348;46;1838;-77
2023/12/30 13:51:41;;;;;;;;;;;;;;;12.58;50.97;99864.84;1087534;54;1005;-76
2023/12/30 13:52:42;;;;;;;;;;;;;;;12.41;51.29;99871.13;1087234;47;1117;-77
2023/12/30 13:53:46;;;;;;;;;;;;;;;12.21;51.36;99863.34;1086731;47;1445;-76
2023/12/30 13:54:46;;;;;;;;;;;;;;;12.31;51.12;99866.75;1087445;54;1007;-77
2023/12/30 13:55:51;;;;;;;;;;;;;;;12.14;51.43;99871.16;1087369;47;932;-75
2023/12/30 13:57:00;;;;;;;;;;;;;;;12.07;51.72;99866.63;1087557;54;1092;-76
2023/12/30 13:58:05;;;;;;;;;;;;;;;12.16;51.70;99863.00;1087444;54;1003;-77
2023/12/30 13:59:08;;;;;;;;;;;;;;;12.30;51.45;99865.06;1087285;54;1606;-76
2023/12/30 14:00:13;;;;;;;;;;;;;;;12.23;51.28;99861.34;1087437;54;1474;-76
2023/12/30 14:01:15;;;;;;;;;;;;;;;12.07;51.63;99869.31;1087492;54;1018;-76
2023/12/30 14:02:19;;;;;;;;;;;;;;;12.16;51.20;99863.00;1087504;47;1087;-78
2023/12/30 14:03:23;;;;;;;;;;;;;;;11.93;51.84;99866.16;1087477;54;911;-77
2023/12/30 14:04:26;;;;;;;;;;;;;;;11.96;51.96;99860.50;1087557;54;999;-76
2023/12/30 14:05:29;;;;;;;;;;;;;;;11.88;51.83;99862.28;1087458;47;952;-76
2023/12/30 14:06:37;;;;;;;;;;;;;;;11.77;51.99;99858.88;1087511;47;920;-77
2023/12/30 14:07:37;;;;;;;;;;;;;;;11.80;51.90;99866.59;1087506;54;999;-76
2023/12/30 14:08:42;;;;;;;;;;;;;;;11.94;51.98;99870.53;1087567;54;1229;-76
2023/12/30 14:09:50;;;;;;;;;;;;;;;11.84;51.90;99864.44;1087545;54;1379;-76
2023/12/30 14:10:54;;;;;;;;;;;;;;;11.96;51.62;99860.50;1087604;54;1888;-78
2023/12/30 14:11:59;;;;;;;;;;;;;;;11.82;52.08;99864.59;1087902;46;995;-76
2023/12/30 14:13:02;;;;;;;;;;;;;;;11.88;52.17;99865.81;1087885;47;972;-76
2023/12/30 14:14:09;;;;;;;;;;;;;;;11.76;52.38;99857.19;1086879;46;967;-77
2023/12/30 14:15:15;;;;;;;;;;;;;;;11.86;51.95;99865.13;1086626;47;1155;-78
2023/12/30 14:16:17;;;;;;;;;;;;;;;11.86;52.05;99854.41;1086920;47;1162;-78
2023/12/30 14:17:20;;;;;;;;;;;;;;;11.86;52.38;99849.88;1086915;54;1182;-77
2023/12/30 14:18:24;;;;;;;;;;;;;;;11.74;52.52;99851.16;1086819;54;1178;-77
2023/12/30 14:19:27;;;;;;;;;;;;;;;11.81;52.13;99846.84;1087077;47;1063;-78
2023/12/30 14:20:27;;;;;;;;;;;;;;;11.85;51.95;99852.72;1086970;54;1326;-78
2023/12/30 14:21:31;;;;;;;;;;;;;;;11.95;52.09;99853.47;1087056;54;1099;-78
2023/12/30 14:22:32;;;;;;;;;;;;;;;11.97;52.13;99851.50;1087013;54;998;-78
2023/12/30 14:23:35;;;;;;;;;;;;;;;12.07;51.99;99850.56;1086789;54;1097;-78
2023/12/30 14:24:36;;;;;;;;;;;;;;;11.93;52.26;99843.91;1086811;54;1096;-77
2023/12/30 14:25:39;;;;;;;;;;;;;;;11.89;52.09;99848.75;1087012;54;1138;-78
2023/12/30 14:26:40;;;;;;;;;;;;;;;11.79;52.36;99859.56;1086887;54;1069;-79
2023/12/30 14:27:44;;;;;;;;;;;;;;;11.80;52.62;99861.25;1083944;54;1178;-79
2023/12/30 14:28:46;;;;;;;;;;;;;;;11.84;52.46;99851.03;1083823;54;1174;-78
2023/12/30 14:29:51;;;;;;;;;;;;;;;11.77;52.65;99860.72;1084148;47;1563;-78
2023/12/30 14:30:52;;;;;;;;;;;;;;;11.88;52.67;99846.22;1084040;54;1860;-78
2023/12/30 14:31:52;;;;;;;;;;;;;;;11.84;52.79;99857.25;1085973;54;1135;-75
2023/12/30 14:32:56;;;;;;;;;;;;;;;11.94;52.39;99849.09;1087810;47;1028;-76
2023/12/30 14:33:59;;;;;;;;;;;;;;;11.88;52.62;99852.44;1087696;47;1118;-75
2023/12/30 14:35:03;;;;;;;;;;;;;;;11.85;52.75;99852.72;1087796;54;992;-77
2023/12/30 14:36:05;;;;;;;;;;;;;;;11.97;52.36;99851.50;1087782;47;1015;-76
2023/12/30 14:37:06;;;;;;;;;;;;;;;12.02;52.13;99853.72;1087760;54;1032;-76
2023/12/30 14:38:09;;;;;;;;;;;;;;;11.86;52.58;99849.88;1087887;54;1021;-77
2023/12/30 14:39:13;;;;;;;;;;;;;;;11.79;53.08;99842.66;1087689;47;1007;-76
2023/12/30 14:40:16;;;;;;;;;;;;;;;11.85;52.76;99858.09;1087893;54;1375;-76
2023/12/30 14:41:17;;;;;;;;;;;;;;;11.89;52.91;99848.75;1087821;54;919;-76
2023/12/30 14:42:20;;;;;;;;;;;;;;;11.99;52.77;99856.69;1087804;54;996;-77
2023/12/30 14:43:21;;;;;;;;;;;;;;;11.97;53.09;99848.81;1087837;54;1118;-76
2023/12/30 14:44:24;;;;;;;;;;;;;;;11.89;52.79;99850.56;1087788;46;1083;-76
2023/12/30 14:45:24;;;;;;;;;;;;;;;11.92;53.29;99853.78;1087805;54;1067;-77
2023/12/30 14:46:29;;;;;;;;;;;;;;;11.92;52.98;99853.78;1087815;54;917;-77
2023/12/30 14:47:30;;;;;;;;;;;;;;;11.87;53.17;99850.75;1087833;54;1028;-76
2023/12/30 14:48:33;;;;;;;;;;;;;;;11.79;53.62;99850.69;1087340;54;957;-79
2023/12/30 14:49:36;;;;;;;;;;;;;;;11.89;53.42;99856.78;1087107;47;1034;-77
2023/12/30 14:50:39;;;;;;;;;;;;;;;11.79;53.57;99856.88;1086860;47;1896;-79
2023/12/30 14:51:40;;;;;;;;;;;;;;;11.54;54.20;99850.50;1087035;46;1189;-78
2023/12/30 14:52:43;;;;;;;;;;;;;;;11.63;54.12;99854.91;1087110;54;980;-79
2023/12/30 14:53:44;;;;;;;;;;;;;;;11.68;53.94;99849.94;1086906;54;1135;-80
2023/12/30 14:54:47;;;;;;;;;;;;;;;11.63;54.13;99862.94;1086034;54;1120;-77
2023/12/30 14:55:49;;;;;;;;;;;;;;;11.57;54.35;99866.25;1086946;54;1170;-80
2023/12/30 14:56:53;;;;;;;;;;;;;;;11.66;54.09;99854.63;1087139;54;1134;-80
2023/12/30 14:57:55;;;;;;;;;;;;;;;11.48;54.80;99860.00;1087130;46;1042;-79
2023/12/30 14:58:56;;;;;;;;;;;;;;;11.61;54.40;99862.28;1086908;54;991;-78
2023/12/30 14:59:59;;;;;;;;;;;;;;;11.69;54.24;99861.50;1086845;47;1394;-78
2023/12/30 15:01:00;;;;;;;;;;;;;;;11.65;54.35;99858.28;1087144;54;1373;-78
2023/12/30 15:02:04;;;;;;;;;;;;;;;11.62;54.55;99861.28;1087238;54;1065;-77
2023/12/30 15:03:04;;;;;;;;;;;;;;;11.51;54.75;99858.88;1087103;47;1169;-78
2023/12/30 15:04:08;;;;;;;;;;;;;;;11.44;55.14;99849.75;1086963;54;1455;-78
2023/12/30 15:05:14;;;;;;;;;;;;;;;11.57;55.01;99852.06;1087166;54;1149;-77
2023/12/30 15:06:18;;;;;;;;;;;;;;;11.66;54.53;99841.22;1087105;54;1066;-77
2023/12/30 15:07:19;;;;;;;;;;;;;;;11.69;54.57;99835.56;1087016;54;1130;-78
2023/12/30 15:08:22;;;;;;;;;;;;;;;11.63;54.95;99843.38;1087665;54;1102;-77
2023/12/30 15:09:23;;;;;;;;;;;;;;;11.64;55.04;99840.53;1087934;54;988;-76
2023/12/30 15:10:26;;;;;;;;;;;;;;;11.61;54.67;99838.19;1087752;54;1883;-77
2023/12/30 15:11:27;;;;;;;;;;;;;;;11.57;54.90;99839.50;1087792;54;1053;-76
2023/12/30 15:12:30;;;;;;;;;;;;;;;11.70;54.91;99828.38;1087791;54;980;-76
2023/12/30 15:13:31;;;;;;;;;;;;;;;11.57;55.11;99844.84;1084880;47;1172;-79
2023/12/30 15:14:34;;;;;;;;;;;;;;;11.58;55.18;99841.19;1086079;47;1152;-77
2023/12/30 15:15:35;;;;;;;;;;;;;;;11.56;55.29;99840.50;1085612;54;1174;-77
2023/12/30 15:16:42;;;;;;;;;;;;;;;11.53;55.41;99846.13;1086004;54;987;-78
2023/12/30 15:17:42;;;;;;;;;;;;;;;11.62;55.03;99837.16;1085447;47;1153;-77
2023/12/30 15:18:45;;;;;;;;;;;;;;;11.65;55.04;99842.22;1085610;54;1156;-80
2023/12/30 15:19:46;;;;;;;;;;;;;;;11.68;54.95;99839.25;1087050;47;1423;-78
2023/12/30 15:20:52;;;;;;;;;;;;;;;11.74;55.03;99836.91;1087472;47;1183;-80
2023/12/30 15:22:00;;;;;;;;;;;;;;;11.73;55.11;99849.47;1087311;47;1047;-78
2023/12/30 15:23:04;;;;;;;;;;;;;;;11.66;55.37;99837.72;1087631;54;1205;-79
2023/12/30 15:24:05;;;;;;;;;;;;;;;11.71;55.35;99838.91;1088139;47;1101;-78
2023/12/30 15:25:11;;;;;;;;;;;;;;;11.67;55.02;99840.25;1087965;47;1134;-81
2023/12/30 15:26:17;;;;;;;;;;;;;;;11.75;55.29;99838.59;1087998;46;1054;-78